sensor_id;sensor_type;location;lat;lon;timestamp;pressure;altitude;pressure_sealevel;temperature;humidity
14767;BME280;7475;53.558;9.970;2022-12-18T00:00:33;102940.75;;;-2.61;100.00
14767;BME280;7475;53.558;9.970;2022-12-18T00:02:58;102943.34;;;-2.61;100.00
14767;BME280;7475;53.558;9.970;2022-12-18T00:05:23;102938.84;;;-2.67;100.00
14767;BME280;7475;53.558;9.970;2022-12-18T00:07:49;102938.06;;;-2.64;100.00
14767;BME280;7475;53.558;9.970;2022-12-18T00:10:17;102931.91;;;-2.68;100.00
14767;BME280;7475;53.558;9.970;2022-12-18T00:12:42;102936.22;;;-2.68;100.00
14767;BME280;7475;53.558;9.970;2022-12-18T00:15:08;102940.56;;;-2.67;100.00
14767;BME280;7475;53.558;9.970;2022-12-18T00:17:33;102949.25;;;-2.67;100.00
14767;BME280;7475;53.558;9.970;2022-12-18T00:19:58;102943.19;;;-2.67;100.00
14767;BME280;7475;53.558;9.970;2022-12-18T00:22:24;102952.72;;;-2.68;100.00
14767;BME280;7475;53.558;9.970;2022-12-18T00:24:49;102950.06;;;-2.69;100.00
14767;BME280;7475;53.558;9.970;2022-12-18T00:27:14;102950.00;;;-2.72;100.00
14767;BME280;7475;53.558;9.970;2022-12-18T00:29:40;102957.78;;;-2.72;100.00
14767;BME280;7475;53.558;9.970;2022-12-18T00:32:05;102965.53;;;-2.76;100.00
14767;BME280;7475;53.558;9.970;2022-12-18T00:34:30;102962.00;;;-2.78;100.00
14767;BME280;7475;53.558;9.970;2022-12-18T00:36:55;102968.03;;;-2.79;100.00
14767;BME280;7475;53.558;9.970;2022-12-18T00:39:21;102963.66;;;-2.80;100.00
14767;BME280;7475;53.558;9.970;2022-12-18T00:41:47;102966.22;;;-2.81;100.00
14767;BME280;7475;53.558;9.970;2022-12-18T00:44:31;102960.91;;;-2.86;100.00
14767;BME280;7475;53.558;9.970;2022-12-18T00:46:56;102960.81;;;-2.89;100.00
14767;BME280;7475;53.558;9.970;2022-12-18T00:49:21;102953.00;;;-2.89;100.00
14767;BME280;7475;53.558;9.970;2022-12-18T00:51:47;102959.06;;;-2.90;100.00
14767;BME280;7475;53.558;9.970;2022-12-18T00:54:13;102958.06;;;-2.95;100.00
14767;BME280;7475;53.558;9.970;2022-12-18T00:56:38;102959.06;;;-2.90;100.00
14767;BME280;7475;53.558;9.970;2022-12-18T00:59:04;102964.44;;;-2.84;100.00
14767;BME280;7475;53.558;9.970;2022-12-18T01:01:30;102953.09;;;-2.86;100.00
14767;BME280;7475;53.558;9.970;2022-12-18T01:03:58;102958.06;;;-2.95;100.00
14767;BME280;7475;53.558;9.970;2022-12-18T01:06:24;102972.69;;;-2.99;100.00
14767;BME280;7475;53.558;9.970;2022-12-18T01:08:49;102978.72;;;-3.01;100.00
14767;BME280;7475;53.558;9.970;2022-12-18T01:11:17;102970.06;;;-3.00;100.00
14767;BME280;7475;53.558;9.970;2022-12-18T01:13:43;102966.44;;;-3.05;100.00
14767;BME280;7475;53.558;9.970;2022-12-18T01:16:11;102968.94;;;-3.10;100.00
14767;BME280;7475;53.558;9.970;2022-12-18T01:18:37;102967.09;;;-3.14;100.00
14767;BME280;7475;53.558;9.970;2022-12-18T01:21:10;102970.53;;;-3.15;100.00
14767;BME280;7475;53.558;9.970;2022-12-18T01:23:35;102973.00;;;-3.20;100.00
14767;BME280;7475;53.558;9.970;2022-12-18T01:26:09;102964.38;;;-3.19;100.00
14767;BME280;7475;53.558;9.970;2022-12-18T01:28:35;102964.28;;;-3.22;100.00
14767;BME280;7475;53.558;9.970;2022-12-18T01:31:30;102950.47;;;-3.21;100.00
14767;BME280;7475;53.558;9.970;2022-12-18T01:33:56;102964.28;;;-3.22;100.00
14767;BME280;7475;53.558;9.970;2022-12-18T01:36:36;102952.97;;;-3.24;100.00
14767;BME280;7475;53.558;9.970;2022-12-18T01:39:04;102964.19;;;-3.25;100.00
14767;BME280;7475;53.558;9.970;2022-12-18T01:41:32;102970.16;;;-3.27;100.00
14767;BME280;7475;53.558;9.970;2022-12-18T01:44:53;102969.22;;;-3.31;100.00
14767;BME280;7475;53.558;9.970;2022-12-18T01:47:43;102970.91;;;-3.33;100.00
14767;BME280;7475;53.558;9.970;2022-12-18T01:52:59;102988.94;;;-3.38;100.00
14767;BME280;7475;53.558;9.970;2022-12-18T01:55:28;102986.31;;;-3.39;100.00
14767;BME280;7475;53.558;9.970;2022-12-18T01:57:56;102986.31;;;-3.39;100.00
14767;BME280;7475;53.558;9.970;2022-12-18T02:00:23;102976.69;;;-3.42;100.00
14767;BME280;7475;53.558;9.970;2022-12-18T02:02:49;102984.47;;;-3.43;100.00
14767;BME280;7475;53.558;9.970;2022-12-18T02:05:23;102985.34;;;-3.43;100.00
14767;BME280;7475;53.558;9.970;2022-12-18T02:08:10;102982.59;;;-3.48;100.00
14767;BME280;7475;53.558;9.970;2022-12-18T02:16:31;102985.94;;;-3.52;100.00
14767;BME280;7475;53.558;9.970;2022-12-18T02:18:58;102979.00;;;-3.53;100.00
14767;BME280;7475;53.558;9.970;2022-12-18T02:24:41;102989.50;;;-3.50;100.00
14767;BME280;7475;53.558;9.970;2022-12-18T02:27:10;102996.44;;;-3.49;100.00
14767;BME280;7475;53.558;9.970;2022-12-18T02:29:51;102995.50;;;-3.51;100.00
14767;BME280;7475;53.558;9.970;2022-12-18T02:32:24;102996.19;;;-3.58;100.00
14767;BME280;7475;53.558;9.970;2022-12-18T02:34:51;103003.13;;;-3.57;100.00
14767;BME280;7475;53.558;9.970;2022-12-18T02:37:20;102999.59;;;-3.59;100.00
14767;BME280;7475;53.558;9.970;2022-12-18T02:39:48;103007.25;;;-3.63;100.00
14767;BME280;7475;53.558;9.970;2022-12-18T02:42:14;103000.19;;;-3.68;100.00
14767;BME280;7475;53.558;9.970;2022-12-18T02:44:46;103001.00;;;-3.70;100.00
14767;BME280;7475;53.558;9.970;2022-12-18T02:47:13;102999.22;;;-3.71;100.00
14767;BME280;7475;53.558;9.970;2022-12-18T02:49:49;103006.19;;;-3.70;100.00
14767;BME280;7475;53.558;9.970;2022-12-18T02:55:16;103009.59;;;-3.71;100.00
14767;BME280;7475;53.558;9.970;2022-12-18T02:58:17;103012.19;;;-3.71;100.00
14767;BME280;7475;53.558;9.970;2022-12-18T03:00:53;103013.16;;;-3.69;100.00
14767;BME280;7475;53.558;9.970;2022-12-18T03:03:29;103008.84;;;-3.69;100.00
14767;BME280;7475;53.558;9.970;2022-12-18T03:06:07;103014.91;;;-3.68;100.00
14767;BME280;7475;53.558;9.970;2022-12-18T03:08:39;103008.84;;;-3.69;100.00
14767;BME280;7475;53.558;9.970;2022-12-18T03:11:11;103003.59;;;-3.70;100.00
14767;BME280;7475;53.558;9.970;2022-12-18T03:13:45;103004.41;;;-3.71;100.00
14767;BME280;7475;53.558;9.970;2022-12-18T03:16:15;103006.19;;;-3.70;100.00
14767;BME280;7475;53.558;9.970;2022-12-18T03:18:47;103007.97;;;-3.69;100.00
14767;BME280;7475;53.558;9.970;2022-12-18T03:21:14;103007.88;;;-3.72;100.00
14767;BME280;7475;53.558;9.970;2022-12-18T03:23:44;103007.91;;;-3.71;100.00
14767;BME280;7475;53.558;9.970;2022-12-18T03:26:16;103006.09;;;-3.73;100.00
14767;BME280;7475;53.558;9.970;2022-12-18T03:28:46;103021.69;;;-3.73;100.00
14767;BME280;7475;53.558;9.970;2022-12-18T03:31:14;103019.91;;;-3.74;100.00
14767;BME280;7475;53.558;9.970;2022-12-18T03:33:45;103015.59;;;-3.74;100.00
14767;BME280;7475;53.558;9.970;2022-12-18T03:36:11;103017.34;;;-3.73;100.00
14767;BME280;7475;53.558;9.970;2022-12-18T03:38:36;103012.91;;;-3.77;100.00
14767;BME280;7475;53.558;9.970;2022-12-18T03:43:57;103014.44;;;-3.83;100.00
14767;BME280;7475;53.558;9.970;2022-12-18T03:46:41;103020.47;;;-3.85;100.00
14767;BME280;7475;53.558;9.970;2022-12-18T03:49:26;103022.97;;;-3.88;100.00
14767;BME280;7475;53.558;9.970;2022-12-18T03:54:26;103006.38;;;-3.93;100.00
14767;BME280;7475;53.558;9.970;2022-12-18T03:56:59;103014.97;;;-3.94;100.00
14767;BME280;7475;53.558;9.970;2022-12-18T03:59:27;103006.31;;;-3.94;100.00
14767;BME280;7475;53.558;9.970;2022-12-18T04:01:56;103008.84;;;-3.96;100.00
14767;BME280;7475;53.558;9.970;2022-12-18T04:04:23;103013.84;;;-4.02;100.00
14767;BME280;7475;53.558;9.970;2022-12-18T04:06:50;103015.31;;;-4.10;100.00
14767;BME280;7475;53.558;9.970;2022-12-18T04:09:17;103009.16;;;-4.14;100.00
14767;BME280;7475;53.558;9.970;2022-12-18T04:11:43;103004.63;;;-4.19;100.00
14767;BME280;7475;53.558;9.970;2022-12-18T04:14:09;103008.91;;;-4.22;100.00
14767;BME280;7475;53.558;9.970;2022-12-18T04:16:35;103020.00;;;-4.26;100.00
14767;BME280;7475;53.558;9.970;2022-12-18T04:19:00;103021.56;;;-4.31;100.00
14767;BME280;7475;53.558;9.970;2022-12-18T04:21:26;103020.66;;;-4.33;100.00
14767;BME280;7475;53.558;9.970;2022-12-18T04:23:51;103013.63;;;-4.35;100.00
14767;BME280;7475;53.558;9.970;2022-12-18T04:26:16;103017.94;;;-4.36;100.00
14767;BME280;7475;53.558;9.970;2022-12-18T04:28:42;103015.25;;;-4.39;100.00
14767;BME280;7475;53.558;9.970;2022-12-18T04:31:07;103014.38;;;-4.40;100.00
14767;BME280;7475;53.558;9.970;2022-12-18T04:33:33;103019.50;;;-4.41;100.00
14767;BME280;7475;53.558;9.970;2022-12-18T04:35:58;103015.97;;;-4.43;100.00
14767;BME280;7475;53.558;9.970;2022-12-18T04:38:23;103009.09;;;-4.43;100.00
14767;BME280;7475;53.558;9.970;2022-12-18T04:40:49;103010.66;;;-4.46;100.00
14767;BME280;7475;53.558;9.970;2022-12-18T04:43:14;103005.47;;;-4.46;100.00
14767;BME280;7475;53.558;9.970;2022-12-18T04:45:39;103014.13;;;-4.47;100.00
14767;BME280;7475;53.558;9.970;2022-12-18T04:48:05;103010.59;;;-4.49;100.00
14767;BME280;7475;53.558;9.970;2022-12-18T04:50:31;103010.59;;;-4.49;100.00
14767;BME280;7475;53.558;9.970;2022-12-18T04:52:57;103016.66;;;-4.49;100.00
14767;BME280;7475;53.558;9.970;2022-12-18T04:55:22;103019.31;;;-4.47;100.00
14767;BME280;7475;53.558;9.970;2022-12-18T04:57:48;103024.50;;;-4.47;100.00
14767;BME280;7475;53.558;9.970;2022-12-18T05:00:13;103014.00;;;-4.50;100.00
14767;BME280;7475;53.558;9.970;2022-12-18T05:02:39;103017.41;;;-4.51;100.00
14767;BME280;7475;53.558;9.970;2022-12-18T05:05:04;103026.06;;;-4.52;100.00
14767;BME280;7475;53.558;9.970;2022-12-18T05:07:30;103036.44;;;-4.52;100.00
14767;BME280;7475;53.558;9.970;2022-12-18T05:09:55;103032.88;;;-4.54;100.00
14767;BME280;7475;53.558;9.970;2022-12-18T05:12:21;103038.06;;;-4.54;100.00
14767;BME280;7475;53.558;9.970;2022-12-18T05:14:46;103045.03;;;-4.53;100.00
14767;BME280;7475;53.558;9.970;2022-12-18T05:17:11;103045.03;;;-4.53;100.00
14767;BME280;7475;53.558;9.970;2022-12-18T05:19:37;103054.59;;;-4.52;100.00
14767;BME280;7475;53.558;9.970;2022-12-18T05:22:02;103058.81;;;-4.54;100.00
14767;BME280;7475;53.558;9.970;2022-12-18T05:24:28;103058.81;;;-4.54;100.00
14767;BME280;7475;53.558;9.970;2022-12-18T05:26:53;103058.81;;;-4.54;100.00
14767;BME280;7475;53.558;9.970;2022-12-18T05:29:18;103051.88;;;-4.55;100.00
14767;BME280;7475;53.558;9.970;2022-12-18T05:31:43;103050.94;;;-4.58;100.00
14767;BME280;7475;53.558;9.970;2022-12-18T05:34:09;103047.47;;;-4.58;100.00
14767;BME280;7475;53.558;9.970;2022-12-18T05:36:34;103058.72;;;-4.58;100.00
14767;BME280;7475;53.558;9.970;2022-12-18T05:38:59;103063.91;;;-4.58;100.00
14767;BME280;7475;53.558;9.970;2022-12-18T05:41:25;103068.22;;;-4.58;100.00
14767;BME280;7475;53.558;9.970;2022-12-18T05:43:51;103075.22;;;-4.55;100.00
14767;BME280;7475;53.558;9.970;2022-12-18T05:46:17;103076.88;;;-4.58;100.00
14767;BME280;7475;53.558;9.970;2022-12-18T05:48:45;103069.94;;;-4.59;100.00
14767;BME280;7475;53.558;9.970;2022-12-18T05:51:13;103066.41;;;-4.61;100.00
14767;BME280;7475;53.558;9.970;2022-12-18T05:53:40;103064.56;;;-4.63;100.00
14767;BME280;7475;53.558;9.970;2022-12-18T05:56:08;103074.19;;;-4.61;100.00
14767;BME280;7475;53.558;9.970;2022-12-18T05:58:34;103069.81;;;-4.62;100.00
14767;BME280;7475;53.558;9.970;2022-12-18T06:01:07;103068.91;;;-4.64;100.00
14767;BME280;7475;53.558;9.970;2022-12-18T06:03:33;103063.59;;;-4.67;100.00
14767;BME280;7475;53.558;9.970;2022-12-18T06:05:58;103068.78;;;-4.67;100.00
14767;BME280;7475;53.558;9.970;2022-12-18T06:08:23;103073.06;;;-4.67;100.00
14767;BME280;7475;53.558;9.970;2022-12-18T06:10:50;103068.78;;;-4.67;100.00
14767;BME280;7475;53.558;9.970;2022-12-18T06:13:16;103072.19;;;-4.68;100.00
14767;BME280;7475;53.558;9.970;2022-12-18T06:15:42;103082.56;;;-4.68;100.00
14767;BME280;7475;53.558;9.970;2022-12-18T06:18:07;103073.06;;;-4.67;100.00
14767;BME280;7475;53.558;9.970;2022-12-18T06:20:32;103077.38;;;-4.68;100.00
14767;BME280;7475;53.558;9.970;2022-12-18T06:22:58;103078.25;;;-4.67;100.00
14767;BME280;7475;53.558;9.970;2022-12-18T06:25:23;103073.97;;;-4.67;100.00
14767;BME280;7475;53.558;9.970;2022-12-18T06:27:49;103075.59;;;-4.69;100.00
14767;BME280;7475;53.558;9.970;2022-12-18T06:30:14;103080.78;;;-4.69;100.00
14767;BME280;7475;53.558;9.970;2022-12-18T06:32:40;103084.22;;;-4.70;100.00
14767;BME280;7475;53.558;9.970;2022-12-18T06:35:05;103081.63;;;-4.70;100.00
14767;BME280;7475;53.558;9.970;2022-12-18T06:37:31;103092.94;;;-4.68;100.00
14767;BME280;7475;53.558;9.970;2022-12-18T06:39:56;103090.22;;;-4.71;100.00
14767;BME280;7475;53.558;9.970;2022-12-18T06:42:23;103087.63;;;-4.71;100.00
14767;BME280;7475;53.558;9.970;2022-12-18T06:44:48;103087.63;;;-4.71;100.00
14767;BME280;7475;53.558;9.970;2022-12-18T06:47:13;103078.13;;;-4.70;100.00
14767;BME280;7475;53.558;9.970;2022-12-18T06:49:39;103091.06;;;-4.72;100.00
14767;BME280;7475;53.558;9.970;2022-12-18T06:52:04;103084.13;;;-4.73;100.00
14767;BME280;7475;53.558;9.970;2022-12-18T06:54:29;103084.13;;;-4.73;100.00
14767;BME280;7475;53.558;9.970;2022-12-18T06:56:55;103086.59;;;-4.76;100.00
14767;BME280;7475;53.558;9.970;2022-12-18T06:59:21;103084.81;;;-4.77;100.00
14767;BME280;7475;53.558;9.970;2022-12-18T07:01:46;103075.31;;;-4.78;100.00
14767;BME280;7475;53.558;9.970;2022-12-18T07:04:11;103077.88;;;-4.78;100.00
14767;BME280;7475;53.558;9.970;2022-12-18T07:06:37;103091.66;;;-4.79;100.00
14767;BME280;7475;53.558;9.970;2022-12-18T07:09:02;103090.84;;;-4.78;100.00
14767;BME280;7475;53.558;9.970;2022-12-18T07:11:27;103095.94;;;-4.81;100.00
14767;BME280;7475;53.558;9.970;2022-12-18T07:13:53;103101.13;;;-4.81;100.00
14767;BME280;7475;53.558;9.970;2022-12-18T07:16:20;103102.84;;;-4.80;100.00
14767;BME280;7475;53.558;9.970;2022-12-18T07:18:46;103104.53;;;-4.82;100.00
14767;BME280;7475;53.558;9.970;2022-12-18T07:21:17;103105.41;;;-4.82;100.00
14767;BME280;7475;53.558;9.970;2022-12-18T07:23:43;103106.19;;;-4.84;100.00
14767;BME280;7475;53.558;9.970;2022-12-18T07:26:12;103109.59;;;-4.85;100.00
14767;BME280;7475;53.558;9.970;2022-12-18T07:28:39;103104.41;;;-4.85;100.00
14767;BME280;7475;53.558;9.970;2022-12-18T07:31:17;103104.41;;;-4.85;100.00
14767;BME280;7475;53.558;9.970;2022-12-18T07:33:44;103109.47;;;-4.88;100.00
14767;BME280;7475;53.558;9.970;2022-12-18T07:36:10;103111.25;;;-4.87;100.00
14767;BME280;7475;53.558;9.970;2022-12-18T07:38:36;103121.63;;;-4.87;100.00
14767;BME280;7475;53.558;9.970;2022-12-18T07:41:10;103117.38;;;-4.85;100.00
14767;BME280;7475;53.558;9.970;2022-12-18T07:43:36;103119.19;;;-4.83;100.00
14767;BME280;7475;53.558;9.970;2022-12-18T07:46:02;103118.41;;;-4.80;100.00
14767;BME280;7475;53.558;9.970;2022-12-18T07:48:28;103128.84;;;-4.79;100.00
14767;BME280;7475;53.558;9.970;2022-12-18T07:51:01;103130.69;;;-4.76;100.00
14767;BME280;7475;53.558;9.970;2022-12-18T07:53:26;103129.00;;;-4.74;100.00
14767;BME280;7475;53.558;9.970;2022-12-18T07:55:59;103137.72;;;-4.72;100.00
14767;BME280;7475;53.558;9.970;2022-12-18T07:58:25;103136.09;;;-4.70;100.00
14767;BME280;7475;53.558;9.970;2022-12-18T08:00:50;103128.38;;;-4.68;100.00
14767;BME280;7475;53.558;9.970;2022-12-18T08:03:18;103125.94;;;-4.64;100.00
14767;BME280;7475;53.558;9.970;2022-12-18T08:05:43;103114.03;;;-4.59;100.00
14767;BME280;7475;53.558;9.970;2022-12-18T08:08:09;103122.97;;;-4.50;100.00
14767;BME280;7475;53.558;9.970;2022-12-18T08:10:35;103124.97;;;-4.42;100.00
14767;BME280;7475;53.558;9.970;2022-12-18T08:13:00;103132.34;;;-4.30;100.00
14767;BME280;7475;53.558;9.970;2022-12-18T08:15:25;103123.91;;;-4.23;100.00
14767;BME280;7475;53.558;9.970;2022-12-18T08:17:51;103113.03;;;-4.12;100.00
14767;BME280;7475;53.558;9.970;2022-12-18T08:20:16;103107.41;;;-3.99;100.00
14767;BME280;7475;53.558;9.970;2022-12-18T08:22:43;103113.03;;;-3.87;100.00
14767;BME280;7475;53.558;9.970;2022-12-18T08:25:09;103109.97;;;-3.73;100.00
14767;BME280;7475;53.558;9.970;2022-12-18T08:27:34;103115.69;;;-3.58;100.00
14767;BME280;7475;53.558;9.970;2022-12-18T08:30:00;103111.41;;;-3.56;100.00
14767;BME280;7475;53.558;9.970;2022-12-18T08:32:26;103115.59;;;-3.61;100.00
14767;BME280;7475;53.558;9.970;2022-12-18T08:34:52;103110.28;;;-3.64;100.00
14767;BME280;7475;53.558;9.970;2022-12-18T08:37:17;103105.00;;;-3.67;100.00
14767;BME280;7475;53.558;9.970;2022-12-18T08:39:42;103104.69;;;-3.76;100.00
14767;BME280;7475;53.558;9.970;2022-12-18T08:42:08;103108.91;;;-3.80;100.00
14767;BME280;7475;53.558;9.970;2022-12-18T08:44:51;103106.25;;;-3.81;100.00
14767;BME280;7475;53.558;9.970;2022-12-18T08:47:17;103111.47;;;-3.81;100.00
14767;BME280;7475;53.558;9.970;2022-12-18T08:49:42;103113.19;;;-3.80;100.00
14767;BME280;7475;53.558;9.970;2022-12-18T08:52:08;103111.34;;;-3.85;100.00
14767;BME280;7475;53.558;9.970;2022-12-18T08:54:33;103113.94;;;-3.85;100.00
14767;BME280;7475;53.558;9.970;2022-12-18T08:56:59;103116.53;;;-3.85;100.00
14767;BME280;7475;53.558;9.970;2022-12-18T08:59:24;103109.69;;;-3.82;100.00
14767;BME280;7475;53.558;9.970;2022-12-18T09:01:49;103114.88;;;-3.82;100.00
14767;BME280;7475;53.558;9.970;2022-12-18T09:04:15;103106.25;;;-3.81;100.00
14767;BME280;7475;53.558;9.970;2022-12-18T09:06:40;103120.28;;;-3.76;100.00
14767;BME280;7475;53.558;9.970;2022-12-18T09:09:06;103117.66;;;-3.76;100.00
14767;BME280;7475;53.558;9.970;2022-12-18T09:11:33;103126.53;;;-3.70;100.00
14767;BME280;7475;53.558;9.970;2022-12-18T09:14:00;103124.00;;;-3.68;100.00
14767;BME280;7475;53.558;9.970;2022-12-18T09:16:27;103114.53;;;-3.66;100.00
14767;BME280;7475;53.558;9.970;2022-12-18T09:18:54;103118.03;;;-3.66;100.00
14767;BME280;7475;53.558;9.970;2022-12-18T09:21:25;103108.50;;;-3.65;100.00
14767;BME280;7475;53.558;9.970;2022-12-18T09:23:53;103100.66;;;-3.67;100.00
14767;BME280;7475;53.558;9.970;2022-12-18T09:26:19;103111.94;;;-3.66;100.00
14767;BME280;7475;53.558;9.970;2022-12-18T09:28:44;103114.56;;;-3.64;100.00
14767;BME280;7475;53.558;9.970;2022-12-18T09:31:11;103117.22;;;-3.63;100.00
14767;BME280;7475;53.558;9.970;2022-12-18T09:33:37;103118.28;;;-3.58;100.00
14767;BME280;7475;53.558;9.970;2022-12-18T09:36:04;103119.19;;;-3.56;100.00
14767;BME280;7475;53.558;9.970;2022-12-18T09:38:30;103110.69;;;-3.50;100.00
14767;BME280;7475;53.558;9.970;2022-12-18T09:40:59;103109.97;;;-3.46;100.00
14767;BME280;7475;53.558;9.970;2022-12-18T09:43:48;103116.16;;;-3.42;100.00
14767;BME280;7475;53.558;9.970;2022-12-18T09:46:34;103118.75;;;-3.42;100.00
14767;BME280;7475;53.558;9.970;2022-12-18T09:49:06;103120.75;;;-3.34;100.00
14767;BME280;7475;53.558;9.970;2022-12-18T09:51:50;103123.66;;;-3.23;100.00
14767;BME280;7475;53.558;9.970;2022-12-18T09:54:25;103107.53;;;-3.13;100.00
14767;BME280;7475;53.558;9.970;2022-12-18T09:56:51;103112.06;;;-3.05;100.00
14767;BME280;7475;53.558;9.970;2022-12-18T09:59:33;103119.22;;;-2.98;100.00
14767;BME280;7475;53.558;9.970;2022-12-18T10:02:19;103122.94;;;-2.90;100.00
14767;BME280;7475;53.558;9.970;2022-12-18T10:04:54;103123.09;;;-2.84;100.00
14767;BME280;7475;53.558;9.970;2022-12-18T10:13:19;103133.94;;;-2.68;100.00
14767;BME280;7475;53.558;9.970;2022-12-18T10:24:30;103127.22;;;-2.28;100.00
14767;BME280;7475;53.558;9.970;2022-12-18T10:27:25;103116.22;;;-2.18;100.00
14767;BME280;7475;53.558;9.970;2022-12-18T10:29:52;103126.06;;;-2.06;100.00
14767;BME280;7475;53.558;9.970;2022-12-18T10:32:21;103132.22;;;-2.03;100.00
14767;BME280;7475;53.558;9.970;2022-12-18T10:34:48;103124.38;;;-2.04;100.00
14767;BME280;7475;53.558;9.970;2022-12-18T10:37:17;103132.22;;;-2.03;100.00
14767;BME280;7475;53.558;9.970;2022-12-18T10:39:43;103128.88;;;-1.98;100.00
14767;BME280;7475;53.558;9.970;2022-12-18T10:42:17;103123.59;;;-2.02;100.00
14767;BME280;7475;53.558;9.970;2022-12-18T10:44:43;103125.44;;;-1.97;100.00
14767;BME280;7475;53.558;9.970;2022-12-18T10:47:14;103124.63;;;-1.95;100.00
14767;BME280;7475;53.558;9.970;2022-12-18T10:49:49;103129.03;;;-1.92;100.00
14767;BME280;7475;53.558;9.970;2022-12-18T10:52:20;103123.91;;;-1.89;100.00
14767;BME280;7475;53.558;9.970;2022-12-18T10:55:02;103113.47;;;-1.89;100.00
14767;BME280;7475;53.558;9.970;2022-12-18T10:59:58;103101.13;;;-1.96;100.00
14767;BME280;7475;53.558;9.970;2022-12-18T11:02:35;103104.59;;;-1.97;100.00
14767;BME280;7475;53.558;9.970;2022-12-18T11:05:01;103097.78;;;-1.92;100.00
14767;BME280;7475;53.558;9.970;2022-12-18T11:07:48;103108.34;;;-1.86;100.00
14767;BME280;7475;53.558;9.970;2022-12-18T11:10:18;103107.50;;;-1.85;100.00
14767;BME280;7475;53.558;9.970;2022-12-18T11:12:44;103106.56;;;-1.87;100.00
14767;BME280;7475;53.558;9.970;2022-12-18T11:15:25;103094.53;;;-1.82;100.00
14767;BME280;7475;53.558;9.970;2022-12-18T11:17:52;103104.16;;;-1.79;100.00
14767;BME280;7475;53.558;9.970;2022-12-18T11:20:29;103106.88;;;-1.75;100.00
14767;BME280;7475;53.558;9.970;2022-12-18T11:22:58;103108.63;;;-1.74;100.00
14767;BME280;7475;53.558;9.970;2022-12-18T11:25:25;103099.97;;;-1.73;100.00
14767;BME280;7475;53.558;9.970;2022-12-18T11:27:59;103100.97;;;-1.68;100.00
14767;BME280;7475;53.558;9.970;2022-12-18T11:32:55;103083.81;;;-1.58;100.00
14767;BME280;7475;53.558;9.970;2022-12-18T11:40:38;103081.31;;;-1.53;100.00
14767;BME280;7475;53.558;9.970;2022-12-18T11:43:54;103077.94;;;-1.49;100.00
14767;BME280;7475;53.558;9.970;2022-12-18T11:46:37;103083.56;;;-1.31;100.00
14767;BME280;7475;53.558;9.970;2022-12-18T11:49:10;103077.25;;;-1.01;100.00
14767;BME280;7475;53.558;9.970;2022-12-18T11:51:42;103077.84;;;-0.70;100.00
14767;BME280;7475;53.558;9.970;2022-12-18T11:54:13;103074.78;;;-0.47;100.00
14767;BME280;7475;53.558;9.970;2022-12-18T11:57:28;103066.31;;;-0.34;100.00
14767;BME280;7475;53.558;9.970;2022-12-18T11:59:44;103052.63;;;-0.21;100.00
14767;BME280;7475;53.558;9.970;2022-12-18T12:05:25;103049.38;;;-0.07;100.00
14767;BME280;7475;53.558;9.970;2022-12-18T12:13:39;103028.19;;;-0.23;100.00
14767;BME280;7475;53.558;9.970;2022-12-18T12:21:58;103038.13;;;-0.53;100.00
14767;BME280;7475;53.558;9.970;2022-12-18T12:24:44;103027.47;;;-0.66;100.00
14767;BME280;7475;53.558;9.970;2022-12-18T12:40:19;102973.44;;;-0.70;100.00
14767;BME280;7475;53.558;9.970;2022-12-18T12:42:56;102971.84;;;-0.62;100.00
14767;BME280;7475;53.558;9.970;2022-12-18T12:45:47;102963.78;;;-0.24;100.00
14767;BME280;7475;53.558;9.970;2022-12-18T12:50:49;102954.16;;;0.35;100.00
14767;BME280;7475;53.558;9.970;2022-12-18T12:53:26;102952.38;;;0.31;100.00
14767;BME280;7475;53.558;9.970;2022-12-18T12:55:54;102959.22;;;0.23;100.00
14767;BME280;7475;53.558;9.970;2022-12-18T12:58:28;102955.53;;;0.08;100.00
14767;BME280;7475;53.558;9.970;2022-12-18T13:06:19;102955.31;;;-0.07;100.00
14767;BME280;7475;53.558;9.970;2022-12-18T13:09:01;102958.88;;;-0.02;100.00
14767;BME280;7475;53.558;9.970;2022-12-18T13:11:52;102949.28;;;-0.03;100.00
14767;BME280;7475;53.558;9.970;2022-12-18T13:14:40;102957.13;;;-0.03;100.00
14767;BME280;7475;53.558;9.970;2022-12-18T13:20:03;102964.13;;;0.01;100.00
14767;BME280;7475;53.558;9.970;2022-12-18T13:22:42;102972.56;;;-0.19;100.00
14767;BME280;7475;53.558;9.970;2022-12-18T13:25:28;102954.84;;;-0.38;100.00
14767;BME280;7475;53.558;9.970;2022-12-18T13:28:06;102951.13;;;-0.52;100.00
14767;BME280;7475;53.558;9.970;2022-12-18T13:38:34;102931.53;;;-0.79;100.00
14767;BME280;7475;53.558;9.970;2022-12-18T13:43:52;102933.13;;;-0.87;100.00
14767;BME280;7475;53.558;9.970;2022-12-18T13:51:51;102951.97;;;-1.04;100.00
14767;BME280;7475;53.558;9.970;2022-12-18T13:54:22;102953.69;;;-1.06;100.00
14767;BME280;7475;53.558;9.970;2022-12-18T13:56:49;102955.28;;;-1.11;100.00
14767;BME280;7475;53.558;9.970;2022-12-18T13:59:23;102953.56;;;-1.12;100.00
14767;BME280;7475;53.558;9.970;2022-12-18T14:01:58;102949.94;;;-1.20;100.00
14767;BME280;7475;53.558;9.970;2022-12-18T14:04:32;102942.88;;;-1.24;100.00
14767;BME280;7475;53.558;9.970;2022-12-18T14:07:09;102931.50;;;-1.30;100.00
14767;BME280;7475;53.558;9.970;2022-12-18T14:09:40;102940.03;;;-1.37;100.00
14767;BME280;7475;53.558;9.970;2022-12-18T14:12:14;102942.59;;;-1.38;100.00
14767;BME280;7475;53.558;9.970;2022-12-18T14:14:59;102945.16;;;-1.40;100.00
14767;BME280;7475;53.558;9.970;2022-12-18T14:17:25;102947.69;;;-1.46;100.00
14767;BME280;7475;53.558;9.970;2022-12-18T14:19:50;102945.84;;;-1.50;100.00
14767;BME280;7475;53.558;9.970;2022-12-18T14:22:21;102945.72;;;-1.56;100.00
14767;BME280;7475;53.558;9.970;2022-12-18T14:27:50;102939.50;;;-1.63;100.00
14767;BME280;7475;53.558;9.970;2022-12-18T14:30:28;102931.66;;;-1.65;100.00
14767;BME280;7475;53.558;9.970;2022-12-18T14:33:18;102929.78;;;-1.72;100.00
14767;BME280;7475;53.558;9.970;2022-12-18T14:36:03;102926.09;;;-1.80;100.00
14767;BME280;7475;53.558;9.970;2022-12-18T14:38:34;102937.25;;;-1.87;100.00
14767;BME280;7475;53.558;9.970;2022-12-18T14:43:29;102934.44;;;-1.96;100.00
14767;BME280;7475;53.558;9.970;2022-12-18T14:45:55;102933.47;;;-2.02;100.00
14767;BME280;7475;53.558;9.970;2022-12-18T14:50:59;102941.13;;;-2.08;100.00